Time;durP1;ratioP1;P1;durP2;ratioP2;P2;SDS_P1;SDS_P2;PMS_P1;PMS_P2;Temp;Humidity;BMP_temperature;BMP_pressure;BME280_temperature;BME280_humidity;BME280_pressure;Samples;Min_cycle;Max_cycle;Signal;HPM_P1;HPM_P2
2021/03/17 00:00:12;;;;;;;4.82;2.30;;;4.90;92.30;;;;;;5030038;28;20596;-51
2021/03/17 00:02:38;;;;;;;3.97;2.40;;;4.90;92.40;;;;;;5028807;28;20053;-54
2021/03/17 00:05:06;;;;;;;4.90;2.22;;;4.90;92.30;;;;;;5017770;28;20080;-54
2021/03/17 00:07:32;;;;;;;3.83;2.30;;;4.90;92.40;;;;;;4981349;28;20078;-54
2021/03/17 00:09:58;;;;;;;5.60;2.20;;;4.90;92.40;;;;;;5025148;28;20041;-54
2021/03/17 00:12:24;;;;;;;5.03;2.70;;;4.90;92.40;;;;;;5027985;28;20046;-51
2021/03/17 00:14:49;;;;;;;4.57;2.17;;;4.90;92.30;;;;;;5027810;28;20041;-56
2021/03/17 00:17:16;;;;;;;3.20;1.98;;;4.90;92.40;;;;;;5023508;28;20123;-51
2021/03/17 00:19:42;;;;;;;3.33;2.00;;;4.90;92.40;;;;;;5023754;28;20509;-54
2021/03/17 00:22:08;;;;;;;3.03;1.95;;;4.90;92.50;;;;;;5027307;28;20049;-54
2021/03/17 00:24:35;;;;;;;4.80;1.95;;;4.90;92.50;;;;;;5007722;28;20603;-55
2021/03/17 00:27:01;;;;;;;2.72;1.88;;;4.90;92.50;;;;;;5027322;28;20080;-54
2021/03/17 00:29:26;;;;;;;5.85;1.80;;;5.00;92.50;;;;;;5028025;28;20065;-55
2021/03/17 00:31:52;;;;;;;2.53;1.70;;;5.00;92.50;;;;;;5014254;28;20124;-54
2021/03/17 00:34:18;;;;;;;3.83;1.42;;;5.00;92.50;;;;;;5026406;28;20049;-54
2021/03/17 00:36:44;;;;;;;3.83;1.58;;;5.00;92.50;;;;;;5028756;28;20049;-55
2021/03/17 00:39:13;;;;;;;2.60;1.35;;;5.00;92.40;;;;;;5026503;28;20132;-55
2021/03/17 00:41:41;;;;;;;2.10;1.70;;;5.00;92.50;;;;;;5026496;28;20119;-54
2021/03/17 00:44:07;;;;;;;5.22;1.88;;;5.00;92.40;;;;;;5027384;28;20068;-54
2021/03/17 00:46:32;;;;;;;3.67;1.77;;;5.00;92.40;;;;;;5028440;28;20045;-51
2021/03/17 00:48:58;;;;;;;3.28;1.70;;;5.10;92.40;;;;;;5010065;28;20079;-54
2021/03/17 00:51:24;;;;;;;2.60;1.38;;;5.10;92.40;;;;;;5010368;28;20040;-53
2021/03/17 00:53:50;;;;;;;4.18;1.77;;;5.00;92.50;;;;;;5022484;28;20037;-56
2021/03/17 00:56:16;;;;;;;5.95;2.10;;;5.00;92.50;;;;;;5025734;28;20053;-52
2021/03/17 00:58:42;;;;;;;2.53;1.90;;;5.00;92.50;;;;;;5029444;28;20042;-53
2021/03/17 01:01:08;;;;;;;4.47;2.03;;;5.00;92.50;;;;;;5026364;28;20414;-54
2021/03/17 01:03:34;;;;;;;4.15;2.00;;;5.00;92.40;;;;;;5027696;28;20057;-53
2021/03/17 01:06:00;;;;;;;6.80;2.33;;;5.00;92.60;;;;;;5012967;28;20541;-50
2021/03/17 01:08:26;;;;;;;4.65;2.30;;;5.00;92.60;;;;;;5030310;28;20049;-51
2021/03/17 01:10:52;;;;;;;5.22;2.55;;;5.00;92.70;;;;;;5025694;28;20045;-51
2021/03/17 01:13:19;;;;;;;4.63;2.70;;;5.00;92.70;;;;;;5028734;28;20041;-51
2021/03/17 01:15:45;;;;;;;5.00;2.33;;;5.00;92.50;;;;;;5008704;28;20042;-55
2021/03/17 01:18:12;;;;;;;4.70;2.50;;;5.00;92.70;;;;;;5027551;28;20133;-51
2021/03/17 01:20:39;;;;;;;6.40;3.13;;;5.00;92.60;;;;;;5027201;28;20083;-54
2021/03/17 01:23:05;;;;;;;6.75;2.85;;;5.00;92.60;;;;;;5026486;28;20140;-53
2021/03/17 01:25:34;;;;;;;6.05;3.10;;;5.00;92.60;;;;;;5019630;28;20049;-52
2021/03/17 01:28:03;;;;;;;5.88;3.28;;;5.00;92.60;;;;;;5026877;28;20108;-54
2021/03/17 01:30:38;;;;;;;4.47;2.90;;;5.00;92.90;;;;;;5027584;28;20048;-53
2021/03/17 01:33:05;;;;;;;6.10;2.92;;;5.00;92.70;;;;;;5026416;28;20041;-51
2021/03/17 01:35:32;;;;;;;8.05;3.30;;;5.10;92.80;;;;;;5020359;28;20045;-53
2021/03/17 01:37:58;;;;;;;4.72;3.03;;;5.00;92.70;;;;;;5026497;28;20073;-50
2021/03/17 01:40:25;;;;;;;5.68;2.97;;;5.10;92.70;;;;;;5028100;28;20088;-53
2021/03/17 01:42:52;;;;;;;5.60;2.80;;;5.10;93.00;;;;;;5011259;28;20050;-52
2021/03/17 01:45:18;;;;;;;4.90;2.97;;;5.10;92.80;;;;;;5024516;28;20061;-53
2021/03/17 01:47:45;;;;;;;3.90;2.58;;;5.10;92.80;;;;;;5011921;28;20056;-53
2021/03/17 01:50:15;;;;;;;6.00;2.17;;;5.10;92.80;;;;;;5024622;28;20410;-51
2021/03/17 01:52:42;;;;;;;3.28;1.90;;;5.10;92.80;;;;;;5025672;28;20034;-51
2021/03/17 01:55:09;;;;;;;4.43;2.40;;;5.10;92.60;;;;;;5025663;28;20076;-53
2021/03/17 01:57:35;;;;;;;6.13;2.00;;;5.10;92.50;;;;;;5023442;28;20511;-52
2021/03/17 02:00:07;;;;;;;5.88;2.20;;;5.10;92.50;;;;;;5027244;28;20056;-56
2021/03/17 02:02:36;;;;;;;5.63;1.70;;;5.00;92.50;;;;;;5013163;28;20069;-54
2021/03/17 02:05:09;;;;;;;4.10;1.48;;;5.10;92.60;;;;;;5026342;28;20387;-53
2021/03/17 02:07:34;;;;;;;5.88;1.95;;;5.00;92.50;;;;;;5025152;28;20112;-52
2021/03/17 02:10:00;;;;;;;4.75;1.58;;;5.00;92.70;;;;;;5018193;28;20498;-54
2021/03/17 02:12:41;;;;;;;5.53;1.73;;;5.00;92.80;;;;;;5028785;28;20080;-54
2021/03/17 02:15:11;;;;;;;4.13;2.20;;;4.90;92.80;;;;;;5023757;28;20108;-51
2021/03/17 02:17:41;;;;;;;3.22;1.60;;;5.00;92.60;;;;;;5027551;28;20103;-51
2021/03/17 02:20:13;;;;;;;6.05;1.90;;;4.90;92.70;;;;;;5022706;28;20034;-51
2021/03/17 02:22:50;;;;;;;6.28;1.95;;;4.90;92.70;;;;;;5030740;28;20449;-52
2021/03/17 02:26:09;;;;;;;5.47;1.88;;;4.80;92.70;;;;;;5030739;28;20128;-53
2021/03/17 02:29:18;;;;;;;3.75;1.33;;;4.90;92.70;;;;;;5009991;28;20061;-56
2021/03/17 02:32:15;;;;;;;5.15;1.80;;;4.80;92.50;;;;;;5026733;28;20053;-54
2021/03/17 02:34:47;;;;;;;6.88;1.70;;;4.80;92.60;;;;;;5028047;28;20506;-55
2021/03/17 02:37:15;;;;;;;;;;;4.80;92.60;;;;;;5025484;28;20123;-52
2021/03/17 02:39:46;;;;;;;6.13;1.70;;;4.80;92.50;;;;;;5029747;28;20016;-55
2021/03/17 02:42:21;;;;;;;4.30;1.67;;;4.80;92.50;;;;;;5028803;28;20042;-52
2021/03/17 02:44:59;;;;;;;6.10;1.85;;;4.90;92.50;;;;;;5009283;28;20517;-54
2021/03/17 02:47:29;;;;;;;6.05;1.65;;;4.90;92.30;;;;;;5019833;28;20049;-51
2021/03/17 02:49:59;;;;;;;2.72;1.65;;;4.90;92.20;;;;;;5030012;28;20042;-55
2021/03/17 02:52:30;;;;;;;4.53;1.50;;;4.80;92.20;;;;;;5029694;28;20459;-56
2021/03/17 02:54:56;;;;;;;2.33;1.50;;;4.80;92.20;;;;;;5030047;28;20037;-54
2021/03/17 02:57:26;;;;;;;4.57;1.42;;;4.90;92.30;;;;;;5029422;28;20394;-52
2021/03/17 02:59:54;;;;;;;3.60;1.40;;;4.90;92.20;;;;;;5027597;28;20745;-53
2021/03/17 03:02:21;;;;;;;4.68;1.48;;;4.80;92.20;;;;;;5030920;28;20072;-54
2021/03/17 03:04:49;;;;;;;5.13;1.48;;;4.80;92.10;;;;;;5031610;28;20119;-55
2021/03/17 03:07:15;;;;;;;6.45;1.63;;;4.90;92.20;;;;;;5031627;28;20413;-54
2021/03/17 03:09:41;;;;;;;4.03;1.48;;;4.90;92.00;;;;;;5030475;28;20057;-55
2021/03/17 03:12:08;;;;;;;5.65;1.35;;;4.80;92.20;;;;;;5029973;28;20045;-54
2021/03/17 03:14:34;;;;;;;3.95;1.30;;;4.80;92.20;;;;;;5025485;28;20048;-55
2021/03/17 03:17:03;;;;;;;3.17;1.33;;;4.80;92.20;;;;;;5027442;28;20037;-56
2021/03/17 03:19:36;;;;;;;3.17;1.42;;;4.80;92.30;;;;;;5027673;28;20634;-55
2021/03/17 03:22:03;;;;;;;5.38;1.40;;;4.70;92.20;;;;;;5023851;28;20038;-54
2021/03/17 03:24:29;;;;;;;5.97;1.50;;;4.70;92.30;;;;;;5011475;28;20042;-54
2021/03/17 03:26:57;;;;;;;4.57;1.60;;;4.70;92.30;;;;;;5022738;28;20722;-54
2021/03/17 03:29:27;;;;;;;3.67;1.30;;;4.70;92.30;;;;;;5028603;28;20041;-54
2021/03/17 03:31:53;;;;;;;3.90;1.35;;;4.70;92.30;;;;;;5026030;28;20475;-53
2021/03/17 03:34:19;;;;;;;6.18;1.45;;;4.70;92.30;;;;;;5028816;28;20044;-55
2021/03/17 03:36:45;;;;;;;5.60;1.50;;;4.60;92.30;;;;;;5026789;28;20057;-53
2021/03/17 03:39:13;;;;;;;4.07;1.30;;;4.60;92.30;;;;;;5026568;28;20421;-54
2021/03/17 03:41:39;;;;;;;4.03;1.40;;;4.60;92.40;;;;;;5027187;28;20103;-56
2021/03/17 03:44:05;;;;;;;3.35;1.42;;;4.60;92.50;;;;;;5027763;28;20041;-55
2021/03/17 03:46:32;;;;;;;4.25;1.30;;;4.60;92.40;;;;;;5022823;28;20048;-55
2021/03/17 03:49:00;;;;;;;6.63;1.55;;;4.60;92.40;;;;;;5025211;28;20045;-55
2021/03/17 03:51:27;;;;;;;3.38;1.40;;;4.60;92.40;;;;;;5029091;28;20037;-56
2021/03/17 03:54:05;;;;;;;6.90;1.40;;;4.60;92.30;;;;;;5027208;28;20049;-56
2021/03/17 03:56:42;;;;;;;4.47;1.30;;;4.60;92.40;;;;;;5028212;28;20060;-55
2021/03/17 03:59:12;;;;;;;3.78;1.35;;;4.60;92.40;;;;;;5019872;28;20050;-55
2021/03/17 04:01:44;;;;;;;6.53;1.45;;;4.60;92.40;;;;;;5017249;28;20076;-55
2021/03/17 04:04:14;;;;;;;4.22;1.50;;;4.60;92.40;;;;;;5027446;28;20041;-54
2021/03/17 04:06:44;;;;;;;5.28;1.42;;;4.50;92.30;;;;;;5017903;28;20052;-55
2021/03/17 04:09:11;;;;;;;6.55;1.65;;;4.50;92.30;;;;;;5024670;28;20056;-55
2021/03/17 04:11:39;;;;;;;6.60;1.77;;;4.50;92.30;;;;;;5027863;28;20398;-54
2021/03/17 04:14:08;;;;;;;5.45;1.80;;;4.50;92.40;;;;;;5027112;28;20037;-55
2021/03/17 04:16:35;;;;;;;7.53;1.63;;;4.50;92.30;;;;;;5022626;28;20151;-54
2021/03/17 04:19:01;;;;;;;5.55;1.55;;;4.50;92.30;;;;;;5023441;28;20071;-55
2021/03/17 04:21:31;;;;;;;7.15;1.52;;;4.40;92.30;;;;;;5029350;28;20675;-55
2021/03/17 04:24:01;;;;;;;4.60;1.40;;;4.40;92.30;;;;;;5020156;28;20129;-55
2021/03/17 04:26:29;;;;;;;5.10;1.55;;;4.30;92.20;;;;;;5021040;28;20447;-55
2021/03/17 04:28:56;;;;;;;6.57;1.50;;;4.20;92.20;;;;;;5029034;28;20052;-55
2021/03/17 04:31:23;;;;;;;3.65;1.48;;;4.30;92.20;;;;;;5025632;28;20059;-55
2021/03/17 04:33:49;;;;;;;7.40;1.75;;;4.10;92.30;;;;;;5027032;28;20037;-55
2021/03/17 04:36:16;;;;;;;10.43;1.80;;;4.10;92.30;;;;;;5022584;28;20045;-53
2021/03/17 04:38:43;;;;;;;6.38;1.65;;;4.00;92.40;;;;;;5025738;28;20037;-56
2021/03/17 04:41:11;;;;;;;4.20;1.50;;;4.00;92.40;;;;;;5026458;28;20049;-54
2021/03/17 04:43:38;;;;;;;4.68;1.48;;;4.00;92.40;;;;;;5025852;28;20056;-55
2021/03/17 04:46:05;;;;;;;6.95;1.60;;;3.90;92.40;;;;;;5024685;28;20040;-55
2021/03/17 04:48:34;;;;;;;4.97;1.73;;;3.90;92.40;;;;;;5021430;28;20113;-55
2021/03/17 04:51:00;;;;;;;5.82;1.45;;;3.80;92.40;;;;;;5007306;28;20041;-55
2021/03/17 04:53:26;;;;;;;3.50;1.45;;;3.80;92.40;;;;;;5026651;28;20072;-55
2021/03/17 04:55:52;;;;;;;5.72;1.38;;;3.80;92.40;;;;;;5025532;28;20498;-54
2021/03/17 04:58:23;;;;;;;6.32;1.70;;;3.70;92.30;;;;;;5028419;28;20045;-55
2021/03/17 05:00:50;;;;;;;8.48;1.58;;;3.70;92.40;;;;;;5000055;28;20046;-55
2021/03/17 05:03:19;;;;;;;5.10;1.70;;;3.60;92.50;;;;;;5028328;28;20044;-55
2021/03/17 05:05:48;;;;;;;4.88;1.55;;;3.60;92.50;;;;;;5026148;28;20052;-56
2021/03/17 05:08:17;;;;;;;3.72;1.63;;;3.60;92.50;;;;;;5024531;28;20088;-52
2021/03/17 05:10:44;;;;;;;5.50;1.48;;;3.50;92.50;;;;;;5025004;28;20038;-56
2021/03/17 05:13:11;;;;;;;4.30;1.77;;;3.50;92.70;;;;;;5026008;28;20464;-55
2021/03/17 05:15:38;;;;;;;6.53;1.50;;;3.50;92.50;;;;;;5028457;28;20033;-56
2021/03/17 05:18:06;;;;;;;8.27;1.70;;;3.50;92.40;;;;;;5028739;28;20072;-55
2021/03/17 05:20:33;;;;;;;5.72;1.92;;;3.50;92.40;;;;;;5024486;28;20045;-55
2021/03/17 05:22:59;;;;;;;8.35;1.80;;;3.50;92.40;;;;;;5024741;28;20138;-55
2021/03/17 05:25:26;;;;;;;6.05;1.58;;;3.50;92.40;;;;;;5021258;28;20140;-56
2021/03/17 05:28:04;;;;;;;7.30;1.70;;;3.50;92.50;;;;;;5021093;28;20029;-56
2021/03/17 05:30:32;;;;;;;3.78;1.70;;;3.50;92.50;;;;;;5025870;28;20052;-55
2021/03/17 05:33:00;;;;;;;3.85;1.63;;;3.50;92.50;;;;;;5026434;28;20449;-55
2021/03/17 05:35:26;;;;;;;6.93;1.60;;;3.50;92.50;;;;;;5027783;28;20076;-55
2021/03/17 05:37:52;;;;;;;8.77;1.70;;;3.60;92.50;;;;;;5024422;28;20469;-55
2021/03/17 05:40:18;;;;;;;6.32;1.85;;;3.60;92.50;;;;;;5023767;28;20041;-55
2021/03/17 05:42:45;;;;;;;7.43;1.85;;;3.60;92.50;;;;;;5023066;28;20045;-53
2021/03/17 05:45:19;;;;;;;5.18;1.50;;;3.60;92.50;;;;;;5024869;28;20511;-56
2021/03/17 05:47:47;;;;;;;4.25;1.58;;;3.70;92.50;;;;;;5023888;28;20045;-56
2021/03/17 05:50:15;;;;;;;5.95;1.65;;;3.70;92.50;;;;;;5027500;28;20037;-51
2021/03/17 05:52:42;;;;;;;7.05;1.90;;;3.70;92.40;;;;;;5026773;28;20711;-55
2021/03/17 05:55:10;;;;;;;5.75;1.83;;;3.70;92.40;;;;;;5028067;28;20072;-56
2021/03/17 05:57:38;;;;;;;7.05;1.85;;;3.70;92.30;;;;;;5030779;28;20068;-56
2021/03/17 06:00:15;;;;;;;6.57;1.67;;;3.70;92.30;;;;;;4998722;28;20041;-55
2021/03/17 06:02:41;;;;;;;5.32;1.60;;;3.70;92.30;;;;;;5020272;28;20564;-54
2021/03/17 06:05:11;;;;;;;6.78;1.92;;;3.60;92.30;;;;;;5031168;28;20037;-55
2021/03/17 06:07:56;;;;;;;4.75;1.42;;;3.60;92.20;;;;;;5029475;28;20098;-54
2021/03/17 06:10:22;;;;;;;4.78;1.40;;;3.50;92.20;;;;;;5013405;28;20128;-56
2021/03/17 06:12:51;;;;;;;6.28;1.70;;;3.50;92.20;;;;;;5012442;28;20567;-56
2021/03/17 06:15:21;;;;;;;4.75;1.52;;;3.60;92.30;;;;;;5028038;28;20065;-55
2021/03/17 06:17:52;;;;;;;7.45;1.85;;;3.60;92.30;;;;;;5027067;28;20037;-55
2021/03/17 06:20:19;;;;;;;5.65;1.70;;;3.60;92.30;;;;;;5023048;28;20485;-55
2021/03/17 06:22:45;;;;;;;4.68;1.80;;;3.70;92.40;;;;;;5030612;28;20069;-55
2021/03/17 06:25:12;;;;;;;7.15;1.80;;;3.70;92.40;;;;;;5030999;28;20065;-55
2021/03/17 06:27:38;;;;;;;7.28;1.67;;;3.70;92.40;;;;;;5029460;28;20060;-55
2021/03/17 06:30:09;;;;;;;9.43;1.67;;;3.70;92.30;;;;;;5029219;28;20049;-55
2021/03/17 06:32:36;;;;;;;3.95;1.65;;;3.80;92.20;;;;;;5028456;28;20033;-55
2021/03/17 06:35:25;;;;;;;5.35;1.70;;;3.80;92.20;;;;;;5031029;28;20418;-56
2021/03/17 06:37:52;;;;;;;5.45;2.00;;;3.80;92.10;;;;;;5026776;28;20053;-53
2021/03/17 06:40:37;;;;;;;6.88;1.70;;;3.80;92.20;;;;;;5024946;28;20074;-53
2021/03/17 06:43:06;;;;;;;7.78;1.60;;;3.80;92.10;;;;;;5029355;28;20050;-55
2021/03/17 06:45:33;;;;;;;7.75;1.63;;;3.90;91.90;;;;;;5018128;28;20576;-53
2021/03/17 06:48:20;;;;;;;7.53;1.58;;;3.90;91.70;;;;;;5024899;28;20091;-54
2021/03/17 06:50:59;;;;;;;6.30;1.42;;;4.00;91.50;;;;;;5026295;28;20486;-53
2021/03/17 06:53:39;;;;;;;5.95;1.80;;;4.00;91.50;;;;;;5013263;28;20059;-53
2021/03/17 06:56:17;;;;;;;4.85;1.40;;;4.00;91.60;;;;;;5028641;28;20054;-54
2021/03/17 06:58:45;;;;;;;5.53;1.67;;;4.00;91.60;;;;;;5029904;28;20052;-55
2021/03/17 07:01:24;;;;;;;5.72;1.60;;;4.00;91.60;;;;;;5029033;28;20042;-56
2021/03/17 07:03:58;;;;;;;5.97;1.60;;;4.00;91.80;;;;;;5020623;28;20045;-55
2021/03/17 07:06:24;;;;;;;5.03;1.20;;;4.00;91.50;;;;;;5019864;28;20056;-54
2021/03/17 07:08:51;;;;;;;6.28;1.60;;;4.00;91.50;;;;;;5022314;28;20046;-55
2021/03/17 07:11:25;;;;;;;7.22;1.38;;;4.10;91.50;;;;;;5023710;28;20056;-56
2021/03/17 07:13:56;;;;;;;7.45;1.50;;;4.10;91.50;;;;;;4999865;28;20046;-56
2021/03/17 07:16:40;;;;;;;7.45;1.65;;;4.10;91.60;;;;;;5017472;28;20050;-55
2021/03/17 07:19:06;;;;;;;7.40;1.58;;;4.20;91.40;;;;;;5018018;28;20033;-56
2021/03/17 07:21:37;;;;;;;5.70;1.50;;;4.20;91.30;;;;;;5019747;28;20056;-56
2021/03/17 07:24:07;;;;;;;10.65;1.70;;;4.20;91.30;;;;;;5019409;28;20494;-55
2021/03/17 07:26:36;;;;;;;8.43;1.77;;;4.20;91.30;;;;;;5000739;28;20043;-55
2021/03/17 07:29:07;;;;;;;10.10;1.65;;;4.30;91.30;;;;;;5018037;28;20055;-55
2021/03/17 07:32:03;;;;;;;10.02;1.85;;;4.30;91.50;;;;;;5014852;28;20041;-52
2021/03/17 07:34:29;;;;;;;6.88;1.67;;;4.30;91.20;;;;;;5013044;28;20585;-55
2021/03/17 07:36:57;;;;;;;7.95;1.77;;;4.30;91.10;;;;;;5016332;28;20124;-56
2021/03/17 07:39:31;;;;;;;7.57;1.52;;;4.30;91.10;;;;;;5018798;28;20045;-52
2021/03/17 07:41:59;;;;;;;6.22;1.60;;;4.30;91.20;;;;;;5019482;28;20041;-55
2021/03/17 07:44:27;;;;;;;5.07;1.65;;;4.40;91.20;;;;;;5001004;28;20417;-55
2021/03/17 07:46:58;;;;;;;6.38;1.65;;;4.50;90.90;;;;;;5015874;28;20057;-55
2021/03/17 07:49:24;;;;;;;7.38;1.70;;;4.50;91.10;;;;;;5015591;28;20552;-55
2021/03/17 07:51:56;;;;;;;11.10;1.90;;;4.50;91.10;;;;;;5016498;28;20502;-56
2021/03/17 07:54:33;;;;;;;9.15;2.08;;;4.50;91.20;;;;;;5022309;28;20509;-52
2021/03/17 07:57:00;;;;;;;8.88;1.92;;;4.50;91.10;;;;;;5020936;28;20038;-55
2021/03/17 07:59:27;;;;;;;8.00;1.88;;;4.60;91.20;;;;;;5017171;28;20042;-53
2021/03/17 08:01:55;;;;;;;11.50;2.08;;;4.60;91.20;;;;;;5012915;28;20105;-54
2021/03/17 08:04:32;;;;;;;9.20;1.83;;;4.60;91.10;;;;;;5016426;28;20452;-54
2021/03/17 08:07:03;;;;;;;8.10;1.83;;;4.80;91.20;;;;;;5019068;28;20049;-52
2021/03/17 08:09:29;;;;;;;10.18;1.85;;;4.90;91.30;;;;;;5029424;28;20049;-56
2021/03/17 08:11:59;;;;;;;9.88;2.20;;;5.10;91.00;;;;;;5027203;28;20069;-55
2021/03/17 08:14:26;;;;;;;7.40;2.13;;;5.20;90.90;;;;;;5028107;28;20099;-52
2021/03/17 08:16:52;;;;;;;8.82;1.73;;;5.40;90.20;;;;;;5027170;28;20517;-56
2021/03/17 08:19:26;;;;;;;6.72;1.75;;;5.40;89.30;;;;;;5026484;28;20504;-55
2021/03/17 08:22:02;;;;;;;11.70;2.20;;;5.50;88.40;;;;;;5027576;28;20045;-58
2021/03/17 08:24:31;;;;;;;8.35;2.13;;;5.60;88.50;;;;;;5015492;28;20042;-55
2021/03/17 08:27:02;;;;;;;9.45;1.70;;;5.80;86.40;;;;;;5014636;28;20037;-52
2021/03/17 08:29:40;;;;;;;9.77;2.17;;;5.80;86.00;;;;;;5019527;28;20041;-55
2021/03/17 08:32:08;;;;;;;10.52;2.10;;;5.90;85.20;;;;;;5020910;28;20053;-54
2021/03/17 08:34:36;;;;;;;11.40;2.65;;;5.90;85.40;;;;;;5021377;28;20067;-55
2021/03/17 08:37:05;;;;;;;10.52;1.80;;;5.90;83.20;;;;;;5026629;28;20103;-55
2021/03/17 08:39:35;;;;;;;7.30;1.88;;;6.00;82.50;;;;;;5019318;28;20092;-56
2021/03/17 08:42:13;;;;;;;10.70;2.40;;;6.10;82.80;;;;;;5021680;28;20038;-55
2021/03/17 08:44:38;;;;;;;9.43;1.98;;;6.30;80.30;;;;;;5023650;28;20045;-55
2021/03/17 08:47:28;;;;;;;13.82;1.80;;;6.30;80.70;;;;;;5017148;28;20041;-54
2021/03/17 08:50:16;;;;;;;10.30;2.00;;;6.40;80.70;;;;;;5007300;28;20452;-55
2021/03/17 08:52:49;;;;;;;10.30;2.08;;;6.50;79.80;;;;;;5013156;28;20296;-54
2021/03/17 08:55:22;;;;;;;8.10;1.77;;;6.50;78.00;;;;;;5019216;28;20034;-53
2021/03/17 08:57:49;;;;;;;4.88;1.70;;;6.60;79.20;;;;;;5003034;28;20122;-54
2021/03/17 09:00:45;;;;;;;6.32;1.27;;;6.70;70.20;;;;;;5024833;28;20041;-56
2021/03/17 09:03:31;;;;;;;5.72;1.27;;;6.70;70.20;;;;;;5016795;28;20394;-55
2021/03/17 09:06:22;;;;;;;7.90;1.45;;;6.70;67.90;;;;;;4988001;28;20107;-55
2021/03/17 09:08:58;;;;;;;6.05;1.50;;;6.60;71.10;;;;;;5006893;28;20438;-55
2021/03/17 09:11:30;;;;;;;6.68;1.70;;;6.60;70.40;;;;;;5018248;28;20038;-55
2021/03/17 09:14:03;;;;;;;11.95;1.67;;;6.70;69.70;;;;;;5020198;28;20045;-53
2021/03/17 09:16:29;;;;;;;9.70;2.05;;;6.60;71.90;;;;;;5024143;28;20056;-54
2021/03/17 09:19:08;;;;;;;9.70;1.70;;;6.60;69.20;;;;;;5024470;28;20049;-55
2021/03/17 09:21:36;;;;;;;7.22;1.60;;;6.70;68.90;;;;;;5025512;28;20095;-55
2021/03/17 09:24:03;;;;;;;10.38;1.60;;;6.60;70.90;;;;;;5028899;28;20128;-56
2021/03/17 09:26:30;;;;;;;9.27;1.30;;;6.60;70.30;;;;;;5024918;28;20480;-56
2021/03/17 09:29:06;;;;;;;7.35;2.15;;;6.70;68.80;;;;;;5022452;28;20049;-54
2021/03/17 09:31:34;;;;;;;5.90;1.48;;;6.70;71.30;;;;;;5032412;28;20611;-54
2021/03/17 09:34:01;;;;;;;9.82;2.50;;;6.70;72.40;;;;;;5027380;28;20547;-54
2021/03/17 09:36:28;;;;;;;9.43;1.67;;;6.60;73.80;;;;;;5019837;28;20038;-54
2021/03/17 09:38:55;;;;;;;13.50;1.95;;;6.50;73.10;;;;;;5034140;28;20041;-54
2021/03/17 09:41:29;;;;;;;6.43;1.95;;;6.50;73.60;;;;;;5028313;28;20177;-54
2021/03/17 09:43:59;;;;;;;7.95;2.10;;;6.40;76.60;;;;;;5022524;28;20087;-55
2021/03/17 09:46:36;;;;;;;7.40;3.15;;;6.30;76.30;;;;;;5025525;28;20045;-52
2021/03/17 09:49:13;;;;;;;9.02;2.70;;;6.40;77.00;;;;;;5025972;28;20037;-50
2021/03/17 09:51:50;;;;;;;12.50;2.50;;;6.50;77.30;;;;;;5023456;28;20057;-56
2021/03/17 09:54:18;;;;;;;10.02;2.65;;;6.50;76.20;;;;;;5025111;28;20483;-51
2021/03/17 09:56:53;;;;;;;15.43;5.00;;;6.40;76.90;;;;;;5034606;28;20057;-52
2021/03/17 09:59:23;;;;;;;8.00;1.80;;;6.50;76.90;;;;;;5035928;28;20212;-53
2021/03/17 10:01:53;;;;;;;11.70;3.67;;;6.50;77.20;;;;;;5028807;28;20112;-55
2021/03/17 10:04:37;;;;;;;15.63;7.35;;;6.50;76.60;;;;;;5023910;28;20128;-53
2021/03/17 10:07:05;;;;;;;11.68;2.33;;;6.60;77.10;;;;;;5022434;28;20053;-54
2021/03/17 10:09:33;;;;;;;8.30;2.67;;;6.60;75.40;;;;;;5028636;28;20037;-54
2021/03/17 10:12:14;;;;;;;8.05;1.83;;;6.70;75.20;;;;;;5028685;28;20505;-51
2021/03/17 10:14:45;;;;;;;9.98;1.27;;;6.80;74.80;;;;;;5023835;28;20083;-54
2021/03/17 10:17:13;;;;;;;8.35;1.70;;;6.90;74.00;;;;;;5033317;28;20156;-51
2021/03/17 10:19:40;;;;;;;6.03;1.30;;;6.90;73.30;;;;;;5025353;28;20149;-53
2021/03/17 10:22:06;;;;;;;9.57;1.90;;;7.00;74.30;;;;;;5026056;28;20069;-50
2021/03/17 10:24:47;;;;;;;5.85;1.65;;;7.00;76.30;;;;;;5012109;28;20044;-54
2021/03/17 10:27:19;;;;;;;9.35;2.10;;;7.00;78.00;;;;;;5030328;28;20243;-50
2021/03/17 10:29:52;;;;;;;8.73;1.52;;;7.00;78.10;;;;;;5036241;28;20131;-52
2021/03/17 10:32:21;;;;;;;7.45;1.55;;;7.00;77.50;;;;;;5026186;28;20160;-51
2021/03/17 10:34:48;;;;;;;9.32;1.85;;;7.00;76.10;;;;;;5029014;28;20068;-53
2021/03/17 10:37:20;;;;;;;7.68;1.80;;;7.00;75.90;;;;;;5028838;28;20126;-53
2021/03/17 10:39:51;;;;;;;12.80;1.77;;;7.00;75.80;;;;;;5035781;28;20108;-54
2021/03/17 10:42:27;;;;;;;11.60;1.88;;;7.10;73.70;;;;;;5032177;28;20030;-54
2021/03/17 10:45:25;;;;;;;6.63;1.30;;;7.20;73.10;;;;;;5035220;28;20042;-54
2021/03/17 10:47:51;;;;;;;8.38;1.35;;;7.40;68.10;;;;;;5021142;28;20439;-53
2021/03/17 10:50:24;;;;;;;9.93;1.75;;;7.50;68.00;;;;;;5019334;28;20041;-54
2021/03/17 10:52:50;;;;;;;7.63;1.60;;;7.50;68.50;;;;;;5014359;28;20054;-52
2021/03/17 10:55:21;;;;;;;7.95;1.63;;;7.40;70.30;;;;;;5029617;28;20048;-53
2021/03/17 10:57:48;;;;;;;9.18;1.88;;;7.40;71.30;;;;;;5032843;28;20524;-54
2021/03/17 11:00:21;;;;;;;6.25;1.73;;;7.50;70.40;;;;;;5033444;28;20445;-51
2021/03/17 11:02:47;;;;;;;6.40;1.60;;;7.50;69.00;;;;;;5033902;28;20077;-53
2021/03/17 11:05:21;;;;;;;7.85;1.50;;;7.40;70.60;;;;;;5032926;28;20033;-57
2021/03/17 11:07:56;;;;;;;7.13;3.08;;;7.20;72.10;;;;;;5029310;28;20044;-52
2021/03/17 11:10:46;;;;;;;8.90;1.90;;;7.20;72.60;;;;;;5015899;28;20048;-51
2021/03/17 11:13:11;;;;;;;10.52;2.15;;;7.20;72.50;;;;;;5021384;28;20037;-52
2021/03/17 11:15:47;;;;;;;9.18;1.90;;;7.20;72.90;;;;;;5032980;28;20523;-53
2021/03/17 11:18:26;;;;;;;7.90;1.50;;;7.30;72.00;;;;;;5031325;28;20120;-53
2021/03/17 11:21:04;;;;;;;5.38;1.30;;;7.30;71.00;;;;;;5032825;28;20049;-54
2021/03/17 11:23:36;;;;;;;4.93;1.40;;;7.30;71.50;;;;;;5033168;28;20049;-52
2021/03/17 11:26:03;;;;;;;6.22;1.48;;;7.20;71.10;;;;;;5024174;28;20046;-53
2021/03/17 11:28:37;;;;;;;5.22;1.33;;;7.20;70.30;;;;;;5018998;28;20042;-53
2021/03/17 11:31:07;;;;;;;6.60;1.55;;;7.10;71.70;;;;;;5016044;28;20191;-53
2021/03/17 11:33:32;;;;;;;10.88;1.73;;;7.20;72.50;;;;;;5014284;28;20135;-50
2021/03/17 11:36:00;;;;;;;4.97;1.38;;;7.00;74.40;;;;;;5023661;28;20139;-50
2021/03/17 11:38:26;;;;;;;9.73;1.67;;;7.00;76.30;;;;;;5031229;28;20045;-54
2021/03/17 11:40:53;;;;;;;11.15;1.75;;;7.00;75.90;;;;;;5032672;28;20111;-54
2021/03/17 11:43:22;;;;;;;8.60;1.67;;;7.10;76.60;;;;;;5028559;28;20128;-51
2021/03/17 11:45:49;;;;;;;9.10;1.65;;;7.00;76.90;;;;;;5025994;28;20328;-53
2021/03/17 11:48:16;;;;;;;10.40;1.67;;;7.10;77.10;;;;;;5031837;28;20033;-54
2021/03/17 11:50:44;;;;;;;12.10;2.03;;;7.20;76.70;;;;;;5020379;28;20045;-51
2021/03/17 11:53:10;;;;;;;5.57;1.50;;;7.50;75.90;;;;;;5019779;28;20418;-52
2021/03/17 11:55:36;;;;;;;10.02;1.92;;;7.50;73.70;;;;;;5030374;28;20048;-53
2021/03/17 11:58:03;;;;;;;11.27;2.17;;;7.70;71.20;;;;;;5025327;28;20060;-54
2021/03/17 12:00:30;;;;;;;9.43;2.03;;;7.70;68.30;;;;;;5030219;28;20509;-52
2021/03/17 12:02:56;;;;;;;10.52;1.77;;;7.60;70.70;;;;;;5024811;28;20489;-51
2021/03/17 12:05:22;;;;;;;7.60;1.85;;;7.60;71.60;;;;;;5029334;28;20033;-54
2021/03/17 12:07:48;;;;;;;9.90;1.50;;;7.50;70.50;;;;;;5031484;28;20115;-54
2021/03/17 12:10:15;;;;;;;8.85;1.38;;;7.60;69.20;;;;;;5030696;28;20060;-55
2021/03/17 12:12:41;;;;;;;11.82;1.40;;;7.50;68.00;;;;;;5029548;28;20080;-52
2021/03/17 12:15:10;;;;;;;6.30;1.38;;;7.60;66.50;;;;;;5032138;28;20069;-52
2021/03/17 12:17:36;;;;;;;10.60;1.35;;;7.70;65.70;;;;;;5031718;28;20128;-51
2021/03/17 12:20:04;;;;;;;6.82;1.48;;;7.60;67.30;;;;;;5010410;28;20375;-51
2021/03/17 12:22:29;;;;;;;7.45;1.55;;;7.70;67.10;;;;;;5025936;28;20489;-51
2021/03/17 12:24:55;;;;;;;4.82;1.67;;;7.90;63.70;;;;;;4995119;28;20038;-52
2021/03/17 12:27:22;;;;;;;4.47;1.48;;;7.90;63.60;;;;;;5023362;28;20041;-54
2021/03/17 12:29:48;;;;;;;5.13;0.95;;;7.90;62.40;;;;;;5028890;28;20052;-52
2021/03/17 12:32:14;;;;;;;9.88;1.85;;;7.80;63.20;;;;;;5030875;28;20406;-54
2021/03/17 12:34:39;;;;;;;7.38;2.10;;;7.80;63.50;;;;;;5030094;28;20044;-51
2021/03/17 12:37:06;;;;;;;9.23;1.45;;;7.80;63.90;;;;;;5019464;28;20564;-50
2021/03/17 12:39:31;;;;;;;6.47;1.70;;;7.90;62.60;;;;;;5027257;28;20049;-54
2021/03/17 12:41:58;;;;;;;8.35;1.92;;;8.10;61.60;;;;;;5014957;28;20248;-55
2021/03/17 12:44:24;;;;;;;6.35;1.40;;;8.10;62.90;;;;;;5019179;28;20454;-53
2021/03/17 12:46:49;;;;;;;8.80;1.60;;;8.20;62.70;;;;;;5029946;28;20076;-54
2021/03/17 12:49:15;;;;;;;7.88;1.30;;;8.20;62.70;;;;;;5024831;28;20128;-55
2021/03/17 12:51:41;;;;;;;4.68;1.40;;;8.20;61.40;;;;;;5025508;28;20475;-50
2021/03/17 12:54:07;;;;;;;6.60;1.10;;;8.20;61.30;;;;;;5003331;28;20342;-53
2021/03/17 12:56:33;;;;;;;3.47;1.00;;;8.20;61.40;;;;;;5022967;28;20042;-54
2021/03/17 12:59:03;;;;;;;4.32;1.20;;;8.20;61.30;;;;;;5027490;28;20387;-54
2021/03/17 13:01:29;;;;;;;4.57;1.08;;;8.20;61.80;;;;;;5030093;28;20073;-53
2021/03/17 13:03:54;;;;;;;7.55;1.90;;;8.20;59.60;;;;;;5030079;28;20453;-53
2021/03/17 13:06:20;;;;;;;6.22;1.40;;;8.20;60.50;;;;;;5017804;28;20402;-54
2021/03/17 13:08:46;;;;;;;7.00;1.30;;;8.20;59.50;;;;;;5027997;28;20033;-53